Time;durP1;ratioP1;P1;durP2;ratioP2;P2;SDS_P1;SDS_P2;PMS_P1;PMS_P2;Temp;Humidity;BMP_temperature;BMP_pressure;BME280_temperature;BME280_humidity;BME280_pressure;Samples;Min_cycle;Max_cycle;Signal;HPM_P1;HPM_P2
2021/10/18 00:00:20;;;;;;;27.75;17.55;;;;;;;9.40;nan;101228.81;5048871;28;20124;-90
2021/10/18 00:03:05;;;;;;;25.23;16.50;;;;;;;9.53;nan;101224.16;5052687;28;20047;-90
2021/10/18 00:05:42;;;;;;;;;;;;;;;9.51;nan;101234.00;5026190;28;20083;-90
2021/10/18 00:08:26;;;;;;;29.05;18.48;;;;;;;9.46;nan;101233.56;5026165;28;19948;-90
2021/10/18 00:11:01;;;;;;;29.50;17.00;;;;;;;9.53;nan;101232.94;5033855;28;20040;-90
2021/10/18 00:13:38;;;;;;;24.20;15.23;;;;;;;9.54;nan;101234.59;5022140;28;20451;-90
2021/10/18 00:16:13;;;;;;;26.48;16.17;;;;;;;9.57;nan;101228.22;5035664;28;20122;-90
2021/10/18 00:18:56;;;;;;;25.75;16.95;;;;;;;9.53;nan;101232.94;5052446;28;20082;-90
2021/10/18 00:21:34;;;;;;;29.00;17.63;;;;;;;9.48;nan;101239.56;5050923;28;20036;-90
2021/10/18 00:24:13;;;;;;;30.83;19.50;;;;;;;9.38;nan;101239.47;5027576;28;20045;-90
2021/10/18 00:26:55;;;;;;;28.27;18.35;;;;;;;9.39;nan;101240.31;5047476;28;20486;-90
2021/10/18 00:29:48;;;;;;;25.52;16.23;;;;;;;9.43;nan;101239.09;5050929;28;20545;-90
2021/10/18 00:32:28;;;;;;;31.05;19.55;;;;;;;9.32;nan;101237.38;5035639;28;20120;-90
2021/10/18 00:35:25;;;;;;;30.15;20.23;;;;;;;9.30;nan;101245.41;5048388;28;20248;-90
2021/10/18 00:38:15;;;;;;;32.08;19.95;;;;;;;9.27;nan;101247.44;5052086;28;20525;-90
2021/10/18 00:41:01;;;;;;;29.02;18.58;;;;;;;9.24;nan;101242.41;5038253;28;20043;-90
2021/10/18 00:43:42;;;;;;;29.05;18.02;;;;;;;9.20;nan;101239.19;5051470;28;20094;-90
2021/10/18 00:46:11;;;;;;;29.23;18.73;;;;;;;9.16;nan;101231.66;5018099;28;20083;-90
2021/10/18 00:49:05;;;;;;;34.57;20.47;;;;;;;9.05;nan;101243.91;5055029;28;20582;-90
2021/10/18 00:51:41;;;;;;;;;;;;;;;9.06;nan;101247.41;5046260;28;20286;-90
2021/10/18 00:54:31;;;;;;;34.03;20.73;;;;;;;9.00;nan;101239.97;5027896;28;20261;-90
2021/10/18 00:57:08;;;;;;;27.10;17.70;;;;;;;9.10;nan;101247.00;5051755;28;20544;-90
2021/10/18 00:59:43;;;;;;;;;;;;;;;9.13;nan;101236.22;5044820;28;20048;-90
2021/10/18 01:02:29;;;;;;;30.40;18.48;;;;;;;9.21;nan;101242.69;5031606;28;20392;-90
2021/10/18 01:05:04;;;;;;;31.93;19.90;;;;;;;9.19;nan;101231.41;5051561;28;20044;-90
2021/10/18 01:07:40;;;;;;;25.58;16.88;;;;;;;9.21;nan;101224.19;5057955;28;20326;-90
2021/10/18 01:10:40;;;;;;;27.33;18.15;;;;;;;9.24;nan;101239.78;5023513;28;20059;-90
2021/10/18 01:13:21;;;;;;;27.20;17.67;;;;;;;9.21;nan;101229.47;5052210;28;20044;-90
2021/10/18 01:16:23;;;;;;;27.33;17.73;;;;;;;9.25;nan;101238.81;5038981;28;20059;-90
2021/10/18 01:19:15;;;;;;;28.67;18.45;;;;;;;9.21;nan;101237.41;5050045;28;20119;-90
2021/10/18 01:22:01;;;;;;;26.58;17.25;;;;;;;9.32;nan;101232.91;5041193;28;20037;-90
2021/10/18 01:24:34;;;;;;;24.33;15.73;;;;;;;9.33;nan;101231.09;5033942;28;20519;-90
2021/10/18 01:27:13;;;;;;;26.75;17.63;;;;;;;9.33;nan;101233.75;5024158;28;20052;-90
2021/10/18 01:29:44;;;;;;;25.40;15.80;;;;;;;9.35;nan;101229.19;5044212;28;20036;-90
2021/10/18 01:32:37;;;;;;;30.55;19.27;;;;;;;9.39;nan;101229.75;5032656;28;20132;-90
2021/10/18 01:35:12;;;;;;;27.15;17.67;;;;;;;9.32;nan;101227.63;5047099;28;20420;-90
2021/10/18 01:37:51;;;;;;;29.50;18.05;;;;;;;9.35;nan;101232.66;5044476;28;20416;-90
2021/10/18 01:40:26;;;;;;;26.38;16.90;;;;;;;9.41;nan;101233.94;5053407;28;20043;-90
2021/10/18 01:43:11;;;;;;;26.50;17.25;;;;;;;9.46;nan;101230.91;5054624;28;20040;-90
2021/10/18 01:45:58;;;;;;;32.38;20.80;;;;;;;9.43;nan;101228.53;5049295;28;20041;-90
2021/10/18 01:48:46;;;;;;;30.83;19.30;;;;;;;9.47;nan;101227.34;5017890;28;20041;-90
2021/10/18 01:51:30;;;;;;;26.98;17.05;;;;;;;9.45;nan;101218.69;5053651;28;20083;-90
2021/10/18 01:54:28;;;;;;;29.75;17.75;;;;;;;9.49;nan;101233.31;5030129;28;20097;-90
2021/10/18 01:57:35;;;;;;;27.60;17.92;;;;;;;9.53;nan;101251.44;5053038;28;20127;-90
2021/10/18 02:00:11;;;;;;;24.10;15.75;;;;;;;9.53;nan;101248.78;5060351;28;20048;-90
2021/10/18 02:03:07;;;;;;;27.00;17.48;;;;;;;9.50;nan;101253.47;5048093;28;20561;-90
2021/10/18 02:06:05;;;;;;;29.05;18.40;;;;;;;9.44;nan;101238.13;5046233;28;20528;-90
2021/10/18 02:08:43;;;;;;;27.45;18.10;;;;;;;9.39;nan;101235.03;5027734;28;20041;-90
2021/10/18 02:11:32;;;;;;;28.30;18.75;;;;;;;9.39;nan;101242.94;5070326;28;20132;-90
2021/10/18 02:14:11;;;;;;;26.00;16.40;;;;;;;9.47;nan;101237.91;5046263;28;20040;-90
2021/10/18 02:17:04;;;;;;;24.92;16.15;;;;;;;9.50;nan;101233.19;5035865;28;20055;-90
2021/10/18 02:20:13;;;;;;;28.80;18.70;;;;;;;9.45;nan;101238.00;5069512;28;20514;-90
2021/10/18 02:23:05;;;;;;;29.10;18.15;;;;;;;9.45;nan;101235.38;5046310;28;20048;-90
2021/10/18 02:25:38;;;;;;;29.35;18.67;;;;;;;9.44;nan;101243.41;5051177;28;20111;-90
2021/10/18 02:28:31;;;;;;;26.40;17.08;;;;;;;9.47;nan;101236.09;5027261;28;20649;-90
2021/10/18 02:31:24;;;;;;;22.30;15.13;;;;;;;9.48;nan;101236.91;5053313;28;20067;-90
2021/10/18 02:34:05;;;;;;;28.33;18.00;;;;;;;9.43;nan;101221.44;5055295;28;20095;-90
2021/10/18 02:36:42;;;;;;;25.27;16.77;;;;;;;9.49;nan;101220.13;5034192;28;20047;-90
2021/10/18 02:39:43;;;;;;;28.20;18.45;;;;;;;9.45;nan;101219.53;5032103;28;20048;-90
2021/10/18 02:42:16;;;;;;;27.73;17.23;;;;;;;9.53;nan;101221.53;5055262;28;20516;-90
2021/10/18 02:44:59;;;;;;;30.05;18.52;;;;;;;9.50;nan;101222.63;5050851;28;20091;-90
2021/10/18 02:47:50;;;;;;;28.35;18.52;;;;;;;9.48;nan;101226.34;5057389;28;20422;-90
2021/10/18 02:50:38;;;;;;;;;;;;;;;9.44;nan;101239.00;5041150;28;20051;-90
2021/10/18 02:53:17;;;;;;;32.63;20.58;;;;;;;9.44;nan;101238.13;5057231;28;20398;-90
2021/10/18 02:56:07;;;;;;;27.42;19.00;;;;;;;9.43;nan;101225.91;5069447;28;20039;-90
2021/10/18 02:58:49;;;;;;;30.33;20.40;;;;;;;9.40;nan;101234.09;5038729;28;20495;-90
2021/10/18 03:01:51;;;;;;;31.35;20.73;;;;;;;9.35;nan;101230.00;5040478;28;20086;-90
2021/10/18 03:04:33;;;;;;;33.38;21.02;;;;;;;9.32;nan;101234.72;5032728;28;20036;-89
2021/10/18 03:07:17;;;;;;;30.60;19.95;;;;;;;9.41;nan;101251.59;5048010;28;20032;-90
2021/10/18 03:10:09;;;;;;;23.02;15.30;;;;;;;9.45;nan;101243.28;5053709;28;20041;-90
2021/10/18 03:12:50;;;;;;;19.55;13.30;;;;;;;9.48;nan;101226.34;5036951;28;20036;-90
2021/10/18 03:15:43;;;;;;;22.83;14.25;;;;;;;9.59;nan;101236.03;5064238;28;20392;-90
2021/10/18 03:18:34;;;;;;;28.88;17.63;;;;;;;9.57;nan;101238.78;5030916;28;20066;-90
2021/10/18 03:21:20;;;;;;;26.77;18.27;;;;;;;9.55;nan;101241.56;5048551;28;20148;-90
2021/10/18 03:24:04;;;;;;;26.52;17.73;;;;;;;9.49;nan;101236.78;5056877;28;20090;-90
2021/10/18 03:26:47;;;;;;;30.90;20.23;;;;;;;9.59;nan;101251.88;5036041;28;20570;-90
2021/10/18 03:29:24;;;;;;;37.80;24.60;;;;;;;9.57;nan;101244.91;5052676;28;20044;-90
2021/10/18 03:32:08;;;;;;;36.92;23.58;;;;;;;9.55;nan;101241.56;5060412;28;20037;-90
2021/10/18 03:35:06;;;;;;;32.70;20.45;;;;;;;9.61;nan;101242.03;5047810;28;20048;-90
2021/10/18 03:37:40;;;;;;;33.63;22.08;;;;;;;9.49;nan;101241.25;5049824;28;20080;-90
2021/10/18 03:40:47;;;;;;;34.30;21.23;;;;;;;9.52;nan;101241.81;5034182;28;20048;-90
2021/10/18 03:43:31;;;;;;;30.17;18.63;;;;;;;9.51;nan;101248.06;5058812;28;20047;-89
2021/10/18 03:46:45;;;;;;;39.78;23.10;;;;;;;9.55;nan;101252.13;5033934;28;20044;-90
2021/10/18 03:49:54;;;;;;;34.72;22.40;;;;;;;9.55;nan;101261.84;5048779;28;20037;-90
2021/10/18 03:52:25;;;;;;;;;;;;;;;9.48;nan;101264.16;5047377;28;20042;-90
2021/10/18 03:55:00;;;;;;;39.60;24.33;;;;;;;9.40;nan;101263.94;5031314;28;19912;-89
2021/10/18 03:57:40;;;;;;;35.67;21.23;;;;;;;9.51;nan;101271.84;5038520;28;20067;-90
2021/10/18 04:00:12;;;;;;;30.15;19.27;;;;;;;9.51;nan;101276.25;5048273;28;20040;-90
2021/10/18 04:03:01;;;;;;;33.72;21.23;;;;;;;9.48;nan;101282.63;5048005;28;20044;-90
2021/10/18 04:05:38;;;;;;;31.55;19.95;;;;;;;9.46;nan;101289.84;5047181;28;20074;-90
2021/10/18 04:08:10;;;;;;;29.73;19.70;;;;;;;9.48;nan;101298.47;5040514;28;20036;-90
2021/10/18 04:10:55;;;;;;;26.75;17.70;;;;;;;9.53;nan;101292.81;5037954;28;20181;-90
2021/10/18 04:13:48;;;;;;;28.77;18.05;;;;;;;9.50;nan;101291.25;5016856;28;20393;-90
2021/10/18 04:16:30;;;;;;;30.10;19.77;;;;;;;9.53;nan;101296.31;5044868;28;20044;-90
2021/10/18 04:19:01;;;;;;;32.30;21.70;;;;;;;9.47;nan;101283.59;5044888;28;20110;-90
2021/10/18 04:21:58;;;;;;;35.35;23.05;;;;;;;9.40;nan;101284.22;5047178;28;20033;-90
2021/10/18 04:24:39;;;;;;;29.73;19.85;;;;;;;9.49;nan;101292.25;5035788;28;20055;-90
2021/10/18 04:27:36;;;;;;;35.13;21.50;;;;;;;9.61;nan;101297.47;5060443;28;20048;-90
2021/10/18 04:30:18;;;;;;;40.65;24.65;;;;;;;9.63;nan;101296.38;5044363;28;20466;-90
2021/10/18 04:33:05;;;;;;;36.72;24.30;;;;;;;9.58;nan;101301.19;5033728;28;20377;-90
2021/10/18 04:35:53;;;;;;;41.38;25.75;;;;;;;9.63;nan;101295.53;5046783;28;20546;-90
2021/10/18 04:39:06;;;;;;;37.30;23.17;;;;;;;9.56;nan;101306.59;5048632;28;20049;-91
2021/10/18 04:42:16;;;;;;;40.58;24.85;;;;;;;9.54;nan;101308.53;5045982;28;20044;-90
2021/10/18 04:45:07;;;;;;;39.83;24.42;;;;;;;9.55;nan;101318.13;5039494;28;20057;-90
2021/10/18 04:47:41;;;;;;;36.90;23.25;;;;;;;9.48;nan;101316.94;5045216;28;20407;-91
2021/10/18 04:50:23;;;;;;;34.17;22.00;;;;;;;9.31;nan;101325.41;5049963;28;20565;-90
2021/10/18 04:53:12;;;;;;;34.28;21.40;;;;;;;9.41;nan;101321.03;5064898;28;20115;-90
2021/10/18 04:56:00;;;;;;;32.63;21.02;;;;;;;9.40;nan;101326.47;5051663;28;20523;-90
2021/10/18 04:58:40;;;;;;;28.45;19.17;;;;;;;9.31;nan;101334.16;5030341;28;20044;-90
2021/10/18 05:01:30;;;;;;;30.17;19.52;;;;;;;9.27;nan;101329.25;5040756;28;20091;-90
2021/10/18 05:04:10;;;;;;;32.83;20.85;;;;;;;9.24;nan;101345.34;5045925;28;20464;-90
2021/10/18 05:06:51;;;;;;;29.45;20.02;;;;;;;9.27;nan;101347.72;5036235;28;20040;-90
2021/10/18 05:09:36;;;;;;;25.77;16.98;;;;;;;9.34;nan;101354.19;5052880;28;20040;-90
2021/10/18 05:12:29;;;;;;;25.77;17.50;;;;;;;9.38;nan;101354.78;5064624;28;20047;-90
2021/10/18 05:15:08;;;;;;;28.98;18.63;;;;;;;9.43;nan;101350.81;5039499;28;20053;-90
2021/10/18 05:18:18;;;;;;;30.50;19.25;;;;;;;9.34;nan;101339.22;5043377;28;20045;-90
2021/10/18 05:21:06;;;;;;;32.05;20.60;;;;;;;9.32;nan;101345.56;5059272;28;20111;-90
2021/10/18 05:23:48;;;;;;;33.03;20.92;;;;;;;9.36;nan;101352.25;5036835;28;20044;-90
2021/10/18 05:26:23;;;;;;;28.38;18.90;;;;;;;9.38;nan;101358.25;5025002;28;20496;-90
2021/10/18 05:29:10;;;;;;;28.83;18.38;;;;;;;9.41;nan;101351.91;5043894;28;20111;-90
2021/10/18 05:31:47;;;;;;;32.97;20.75;;;;;;;9.41;nan;101351.91;5056853;28;20032;-90
2021/10/18 05:34:35;;;;;;;37.22;22.73;;;;;;;9.40;nan;101343.13;5033100;28;20068;-90
2021/10/18 05:37:37;;;;;;;31.95;20.42;;;;;;;9.35;nan;101343.50;5054883;28;20045;-90
2021/10/18 05:40:17;;;;;;;34.58;21.30;;;;;;;9.33;nan;101357.78;5041062;28;20076;-90
2021/10/18 05:42:57;;;;;;;31.92;21.08;;;;;;;9.27;nan;101359.13;5039022;28;20488;-90
2021/10/18 05:45:40;;;;;;;37.72;22.30;;;;;;;9.40;nan;101361.63;5045743;28;20044;-90
2021/10/18 05:48:36;;;;;;;33.92;22.27;;;;;;;9.35;nan;101358.50;5050873;28;20028;-90
2021/10/18 05:51:25;;;;;;;30.73;19.75;;;;;;;9.33;nan;101371.00;5034750;28;20124;-90
2021/10/18 05:54:00;;;;;;;32.45;20.52;;;;;;;9.35;nan;101375.19;5046206;28;20114;-90
2021/10/18 05:56:54;;;;;;;34.92;21.65;;;;;;;9.35;nan;101366.44;5050908;28;20039;-90
2021/10/18 05:59:49;;;;;;;33.83;20.27;;;;;;;9.41;nan;101380.94;5062343;28;20044;-90
2021/10/18 06:02:40;;;;;;;34.50;22.45;;;;;;;9.32;nan;101375.44;5028337;28;20033;-90
2021/10/18 06:05:30;;;;;;;29.25;19.17;;;;;;;9.26;nan;101378.56;5051572;28;20590;-90
2021/10/18 06:08:27;;;;;;;28.00;17.88;;;;;;;9.30;nan;101381.81;5049760;28;20503;-90
2021/10/18 06:11:04;;;;;;;30.40;20.42;;;;;;;9.23;nan;101394.66;5055367;28;20060;-90
2021/10/18 06:13:44;;;;;;;28.98;18.88;;;;;;;9.32;nan;101396.56;5054496;28;20041;-90
2021/10/18 06:16:28;;;;;;;35.63;22.23;;;;;;;9.39;nan;101396.03;5039232;28;20041;-90
2021/10/18 06:19:08;;;;;;;31.80;20.90;;;;;;;9.35;nan;101392.81;5053065;28;20412;-90
2021/10/18 06:21:48;;;;;;;35.87;22.03;;;;;;;9.30;nan;101389.72;5048028;28;20048;-91
2021/10/18 06:24:50;;;;;;;30.02;19.05;;;;;;;9.33;nan;101382.38;5019997;28;20645;-90
2021/10/18 06:27:40;;;;;;;31.15;19.27;;;;;;;9.42;nan;101387.91;5031432;28;20028;-90
2021/10/18 06:30:43;;;;;;;30.77;18.48;;;;;;;9.37;nan;101385.63;5054327;28;20040;-91
2021/10/18 06:33:37;;;;;;;29.27;18.65;;;;;;;9.35;nan;101388.38;5049806;28;20040;-90
2021/10/18 06:36:30;;;;;;;34.00;21.25;;;;;;;9.42;nan;101383.47;5035830;28;20033;-90
2021/10/18 06:39:15;;;;;;;30.43;19.47;;;;;;;9.39;nan;101389.00;5041894;28;20076;-90
2021/10/18 06:42:02;;;;;;;30.10;19.92;;;;;;;9.48;nan;101395.31;5050450;28;20044;-90
2021/10/18 06:45:06;;;;;;;37.10;22.30;;;;;;;9.39;nan;101383.72;5042291;28;20044;-90
2021/10/18 06:47:37;;;;;;;36.95;22.45;;;;;;;9.50;nan;101402.16;5063006;28;20074;-90
2021/10/18 06:50:09;;;;;;;;;;;;;;;9.46;nan;101394.59;5042394;28;20504;-90
2021/10/18 06:52:44;;;;;;;29.10;19.48;;;;;;;9.47;nan;101398.94;5050190;28;19912;-90
2021/10/18 06:55:42;;;;;;;34.47;21.52;;;;;;;9.43;nan;101400.13;5062076;28;20492;-90
2021/10/18 06:58:48;;;;;;;32.75;22.08;;;;;;;9.51;nan;101411.75;5055154;28;20701;-91
2021/10/18 07:01:38;;;;;;;33.15;21.67;;;;;;;9.41;nan;101413.44;5051714;28;20060;-91
2021/10/18 07:04:18;;;;;;;32.78;20.95;;;;;;;9.51;nan;101421.47;5054860;28;20068;-91
2021/10/18 07:07:04;;;;;;;33.20;20.73;;;;;;;9.54;nan;101427.34;5049962;28;20047;-91
2021/10/18 07:10:00;;;;;;;33.30;20.15;;;;;;;9.55;nan;101436.09;5054037;28;20040;-91
2021/10/18 07:12:35;;;;;;;30.33;19.80;;;;;;;9.57;nan;101440.28;5035570;28;20464;-91
2021/10/18 07:15:09;;;;;;;31.23;19.85;;;;;;;9.60;nan;101438.38;5050955;28;20068;-91
2021/10/18 07:18:14;;;;;;;33.83;21.27;;;;;;;9.69;nan;101442.94;5041494;28;20067;-91
2021/10/18 07:21:06;;;;;;;30.75;19.60;;;;;;;9.66;nan;101437.91;5049916;28;20196;-90
2021/10/18 07:23:51;;;;;;;29.58;19.63;;;;;;;9.70;nan;101452.50;5061880;28;20526;-91
2021/10/18 07:26:27;;;;;;;37.58;21.48;;;;;;;9.82;nan;101451.53;5033018;28;20131;-91
2021/10/18 07:29:22;;;;;;;35.08;21.45;;;;;;;9.78;nan;101452.75;5046522;28;20048;-91
2021/10/18 07:32:11;;;;;;;30.90;20.10;;;;;;;9.75;nan;101450.38;5039713;28;20520;-91
2021/10/18 07:34:56;;;;;;;31.08;18.88;;;;;;;9.86;nan;101452.13;5046965;28;20306;-90
2021/10/18 07:37:54;;;;;;;36.28;22.15;;;;;;;9.90;nan;101453.56;5034672;28;20408;-91
2021/10/18 07:40:34;;;;;;;32.78;21.40;;;;;;;9.78;nan;101445.66;5034408;28;20028;-91
2021/10/18 07:43:27;;;;;;;31.35;20.83;;;;;;;9.78;nan;101444.81;5066024;28;20100;-91
2021/10/18 07:46:21;;;;;;;34.47;20.95;;;;;;;9.95;nan;101449.56;5052891;28;20044;-91
2021/10/18 07:49:09;;;;;;;31.00;20.90;;;;;;;10.02;nan;101457.84;5048102;28;20048;-90
2021/10/18 07:51:54;;;;;;;34.03;21.33;;;;;;;10.03;nan;101451.56;5050480;28;20135;-91
2021/10/18 07:54:31;;;;;;;28.73;19.45;;;;;;;10.06;nan;101463.69;5014675;28;20066;-91
2021/10/18 07:57:19;;;;;;;30.15;19.65;;;;;;;10.04;nan;101471.78;5049555;28;20033;-90
2021/10/18 07:59:59;;;;;;;32.20;19.95;;;;;;;10.12;nan;101465.84;5060645;28;20162;-91
2021/10/18 08:02:41;;;;;;;32.95;20.15;;;;;;;10.18;nan;101466.19;5031664;28;20047;-90
2021/10/18 08:05:31;;;;;;;33.80;20.98;;;;;;;10.29;nan;101460.03;5052168;28;20041;-91
2021/10/18 08:08:42;;;;;;;24.05;16.90;;;;;;;10.25;nan;101463.03;5059085;28;20044;-90
2021/10/18 08:11:34;;;;;;;27.00;18.17;;;;;;;10.35;nan;101469.28;5057562;28;20076;-90
2021/10/18 08:14:05;;;;;;;33.45;21.05;;;;;;;10.42;nan;101470.47;5056448;28;20048;-91
2021/10/18 08:16:48;;;;;;;30.33;19.85;;;;;;;10.36;nan;101463.84;5040065;28;20123;-90
2021/10/18 08:19:37;;;;;;;29.52;19.65;;;;;;;10.43;nan;101472.13;5041478;28;20055;-90
2021/10/18 08:22:35;;;;;;;32.17;19.40;;;;;;;10.44;nan;101465.03;5031835;28;20069;-90
2021/10/18 08:25:09;;;;;;;29.73;18.88;;;;;;;10.48;nan;101462.00;5048240;28;20052;-90
2021/10/18 08:27:46;;;;;;;27.90;19.00;;;;;;;10.56;nan;101464.84;5044074;28;20170;-90
2021/10/18 08:30:38;;;;;;;31.15;20.63;;;;;;;10.58;nan;101465.56;5035700;28;20048;-90
2021/10/18 08:33:32;;;;;;;31.17;20.30;;;;;;;10.81;nan;101470.72;5065145;28;20099;-91
2021/10/18 08:36:16;;;;;;;30.40;19.75;;;;;;;10.86;nan;101462.38;5043035;28;20048;-90
2021/10/18 08:45:12;;;;;;;30.23;19.30;;;;;;;11.07;nan;101443.84;5033961;28;20049;-91
2021/10/18 08:48:02;;;;;;;29.83;19.50;;;;;;;11.07;nan;101447.31;5030357;28;20041;-90
2021/10/18 08:51:00;;;;;;;30.40;20.10;;;;;;;11.00;nan;101443.53;5041189;28;20095;-90
2021/10/18 08:53:44;;;;;;;31.88;19.15;;;;;;;11.21;nan;101446.97;5047902;28;20040;-90
2021/10/18 08:57:01;;;;;;;28.73;19.70;;;;;;;11.26;nan;101447.38;5039521;28;20120;-90
2021/10/18 08:59:35;;;;;;;31.45;19.60;;;;;;;11.29;nan;101450.75;5056359;28;20042;-90
2021/10/18 09:02:14;;;;;;;27.70;18.00;;;;;;;11.43;nan;101459.16;5055447;28;20044;-91
2021/10/18 09:04:51;;;;;;;28.63;17.70;;;;;;;11.60;nan;101462.97;5048717;28;20037;-91
2021/10/18 09:07:25;;;;;;;32.27;19.47;;;;;;;11.61;nan;101445.28;5034544;28;20422;-91
2021/10/18 09:10:15;;;;;;;27.42;17.40;;;;;;;11.48;nan;101464.06;5049524;28;20121;-90
2021/10/18 09:13:21;;;;;;;28.10;17.38;;;;;;;11.66;nan;101459.78;5050440;28;20044;-90
2021/10/18 09:16:13;;;;;;;26.95;18.63;;;;;;;11.72;nan;101474.28;5046016;28;20123;-90
2021/10/18 09:19:13;;;;;;;26.25;18.17;;;;;;;11.71;nan;101471.78;5048299;28;20071;-89
2021/10/18 09:21:43;;;;;;;26.73;18.80;;;;;;;11.77;nan;101484.47;5060940;28;20521;-89
2021/10/18 09:24:34;;;;;;;26.80;18.55;;;;;;;11.64;nan;101474.16;5065073;28;20040;-90
2021/10/18 09:27:23;;;;;;;27.50;19.35;;;;;;;11.66;nan;101480.16;5048994;28;20411;-89
2021/10/18 09:30:00;;;;;;;26.73;17.67;;;;;;;11.86;nan;101479.19;5059897;28;20078;-90
2021/10/18 09:32:34;;;;;;;26.52;17.48;;;;;;;11.98;nan;101487.91;5041043;28;20048;-89
2021/10/18 09:35:19;;;;;;;25.58;17.52;;;;;;;11.92;nan;101467.25;5061516;28;20064;-90
2021/10/18 09:37:58;;;;;;;26.00;16.38;;;;;;;12.03;nan;101467.13;5034588;28;20044;-90
2021/10/18 09:40:42;;;;;;;26.45;17.42;;;;;;;11.88;nan;101468.50;5033800;28;20438;-89
2021/10/18 09:43:45;;;;;;;25.00;16.45;;;;;;;12.07;nan;101473.00;5041423;28;20048;-89
2021/10/18 09:46:34;;;;;;;23.75;16.52;;;;;;;11.94;nan;101469.75;5029108;28;20053;-90
2021/10/18 10:51:45;;;;;;;19.25;13.63;;;;;;;12.87;nan;101460.34;5047600;28;20062;-89
2021/10/18 10:54:36;;;;;;;16.93;11.67;;;;;;;12.94;nan;101464.97;5022953;28;20068;-89
2021/10/18 10:57:24;;;;;;;;;;;;;;;13.05;nan;101458.63;5029943;28;20048;-89
2021/10/18 11:00:07;;;;;;;18.30;12.02;;;;;;;13.15;nan;101459.41;5052716;28;19912;-88
2021/10/18 11:02:46;;;;;;;15.85;12.10;;;;;;;12.99;nan;101456.56;5021514;28;20040;-89
2021/10/18 11:05:57;;;;;;;12.68;9.48;;;;;;;13.13;nan;101457.88;5044491;28;20049;-89
2021/10/18 11:08:53;;;;;;;13.60;10.73;;;;;;;13.27;nan;101452.13;5060490;28;20631;-89
2021/10/18 11:12:06;;;;;;;17.00;11.77;;;;;;;13.27;nan;101457.44;5063238;28;20044;-89
2021/10/18 11:14:56;;;;;;;17.10;11.80;;;;;;;13.23;nan;101456.06;5028741;28;20123;-89
2021/10/18 11:17:31;;;;;;;15.38;10.73;;;;;;;13.22;nan;101443.75;5036699;28;20123;-89
2021/10/18 11:20:31;;;;;;;17.13;12.18;;;;;;;13.27;nan;101438.84;5052854;28;20071;-89
2021/10/18 11:23:03;;;;;;;17.40;11.90;;;;;;;13.14;nan;101446.31;5059105;28;20064;-88
2021/10/18 11:25:37;;;;;;;15.35;11.85;;;;;;;13.07;nan;101437.25;5040312;28;20079;-89
2021/10/18 11:28:06;;;;;;;15.75;10.77;;;;;;;13.23;nan;101436.59;5049632;28;20033;-89
2021/10/18 11:30:35;;;;;;;15.00;11.02;;;;;;;13.29;nan;101433.41;5056731;28;20033;-89
2021/10/18 11:33:16;;;;;;;13.90;10.57;;;;;;;13.50;nan;101430.50;5044171;28;20064;-89
2021/10/18 11:35:57;;;;;;;16.20;11.10;;;;;;;13.70;nan;101425.88;5046866;28;20068;-89
2021/10/18 11:38:37;;;;;;;15.40;11.23;;;;;;;13.75;nan;101408.53;5058863;28;20059;-89
2021/10/18 11:41:39;;;;;;;14.93;11.13;;;;;;;13.67;nan;101411.06;5069026;28;20040;-89
2021/10/18 11:44:24;;;;;;;17.15;12.32;;;;;;;13.80;nan;101414.22;5027217;28;20488;-89
2021/10/18 11:47:08;;;;;;;18.08;11.57;;;;;;;13.96;nan;101420.66;5054719;28;20045;-89
2021/10/18 11:49:53;;;;;;;15.93;11.63;;;;;;;13.75;nan;101418.28;5054035;28;20048;-89
2021/10/18 11:52:30;;;;;;;20.48;13.95;;;;;;;13.85;nan;101412.91;5040616;28;20049;-89
2021/10/18 11:55:15;;;;;;;15.93;11.85;;;;;;;13.76;nan;101407.53;5060409;28;20048;-89
2021/10/18 11:57:50;;;;;;;17.00;12.50;;;;;;;13.89;nan;101406.31;5052215;28;20122;-89
2021/10/18 12:00:49;;;;;;;16.95;12.82;;;;;;;13.68;nan;101395.97;5044579;28;20032;-89
2021/10/18 12:03:38;;;;;;;14.88;11.60;;;;;;;13.57;nan;101400.50;5055073;28;20503;-88
2021/10/18 12:06:27;;;;;;;16.17;11.45;;;;;;;13.80;nan;101379.66;5046001;28;20049;-89
2021/10/18 12:09:07;;;;;;;15.75;12.30;;;;;;;13.97;nan;101380.63;5066079;28;20036;-89
2021/10/18 12:11:53;;;;;;;15.05;10.13;;;;;;;13.89;nan;101369.09;5050908;28;20041;-89
2021/10/18 12:14:27;;;;;;;17.65;11.52;;;;;;;13.71;nan;101369.09;5053591;28;20538;-88
2021/10/18 12:17:20;;;;;;;17.73;11.93;;;;;;;13.63;nan;101372.50;5052726;28;20051;-89
2021/10/18 12:20:21;;;;;;;12.68;9.68;;;;;;;13.73;nan;101380.38;5036011;28;20045;-89
2021/10/18 12:23:16;;;;;;;21.80;14.52;;;;;;;13.84;nan;101374.84;5056722;28;20507;-88
2021/10/18 12:25:56;;;;;;;17.10;11.27;;;;;;;14.08;nan;101384.03;5048624;28;20064;-90
2021/10/18 12:28:44;;;;;;;14.80;11.17;;;;;;;13.93;nan;101375.78;5051725;28;20511;-89
2021/10/18 12:31:45;;;;;;;14.55;10.93;;;;;;;13.90;nan;101378.75;5043444;28;20337;-88
2021/10/18 12:34:37;;;;;;;13.68;9.82;;;;;;;14.05;nan;101381.69;5038930;28;20040;-89
2021/10/18 12:37:15;;;;;;;13.05;9.90;;;;;;;13.95;nan;101379.13;5034652;28;20611;-89
2021/10/18 12:40:07;;;;;;;13.63;10.25;;;;;;;13.72;nan;101371.59;5055904;28;20082;-88
2021/10/18 12:42:36;;;;;;;13.27;9.23;;;;;;;13.68;nan;101359.63;5045137;28;20044;-89
2021/10/18 12:45:10;;;;;;;14.02;10.05;;;;;;;13.89;nan;101355.78;5052488;28;20618;-89
2021/10/18 12:47:41;;;;;;;14.93;10.30;;;;;;;13.96;nan;101343.56;5071684;28;20044;-89
2021/10/18 12:50:22;;;;;;;14.95;10.70;;;;;;;13.81;nan;101335.28;5048378;28;20071;-89
2021/10/18 12:53:35;;;;;;;14.95;10.52;;;;;;;13.77;nan;101345.38;5048474;28;20045;-90
2021/10/18 12:56:02;;;;;;;13.55;9.93;;;;;;;13.69;nan;101347.97;5042144;28;20522;-90
2021/10/18 12:58:36;;;;;;;14.43;9.88;;;;;;;13.70;nan;101360.28;5060847;28;20045;-90
2021/10/18 13:01:15;;;;;;;13.27;10.05;;;;;;;13.72;nan;101357.47;5053074;28;20040;-90
2021/10/18 13:03:49;;;;;;;11.00;8.50;;;;;;;13.75;nan;101354.50;5038661;28;20060;-90
2021/10/18 13:06:16;;;;;;;15.02;10.45;;;;;;;13.88;nan;101365.59;5041096;28;20051;-91
2021/10/18 13:08:43;;;;;;;12.60;9.25;;;;;;;13.65;nan;101359.06;5038152;28;20036;-91
2021/10/18 13:11:08;;;;;;;16.70;11.07;;;;;;;13.65;nan;101365.22;5063571;28;20032;-91
2021/10/18 13:13:34;;;;;;;14.05;10.90;;;;;;;13.67;nan;101373.88;5054974;28;20032;-91
2021/10/18 13:15:59;;;;;;;12.70;9.35;;;;;;;13.69;nan;101365.75;5054703;28;20040;-91
2021/10/18 13:18:29;;;;;;;13.38;9.55;;;;;;;13.92;nan;101379.41;5044541;28;20037;-91
2021/10/18 13:20:59;;;;;;;11.45;9.05;;;;;;;13.80;nan;101384.97;5070855;28;20087;-91
2021/10/18 13:23:28;;;;;;;12.15;9.27;;;;;;;13.89;nan;101377.88;5035419;28;20032;-91
2021/10/18 13:25:53;;;;;;;14.13;9.65;;;;;;;13.97;nan;101385.97;5049926;28;20040;-91
2021/10/18 13:28:21;;;;;;;12.13;9.05;;;;;;;13.92;nan;101388.25;5062214;28;20039;-91
2021/10/18 13:30:49;;;;;;;12.02;8.90;;;;;;;13.90;nan;101384.91;5031490;28;20033;-91
2021/10/18 13:33:25;;;;;;;13.63;9.73;;;;;;;14.00;nan;101361.72;5036342;28;20032;-91
2021/10/18 13:35:53;;;;;;;16.45;9.93;;;;;;;13.79;nan;101354.03;5027677;28;20060;-92
2021/10/18 13:38:22;;;;;;;17.42;10.90;;;;;;;13.87;nan;101345.34;5037253;28;20067;-91
2021/10/18 13:41:10;;;;;;;15.02;10.40;;;;;;;13.72;nan;101334.38;5044313;28;20044;-91
2021/10/18 13:43:40;;;;;;;14.65;10.68;;;;;;;13.70;nan;101333.69;5043322;28;20079;-91
2021/10/18 13:46:05;;;;;;;12.63;9.35;;;;;;;13.70;nan;101335.53;5063910;28;20052;-91
2021/10/18 13:48:31;;;;;;;15.35;10.85;;;;;;;13.59;nan;101336.59;5057768;28;20504;-91
2021/10/18 13:50:58;;;;;;;14.85;10.13;;;;;;;13.60;nan;101333.78;5036232;28;20121;-91
2021/10/18 13:53:23;;;;;;;12.15;9.02;;;;;;;13.54;nan;101320.28;5058820;28;20059;-91
2021/10/18 13:55:50;;;;;;;10.57;8.27;;;;;;;13.60;nan;101323.13;5065525;28;20032;-91
2021/10/18 13:58:16;;;;;;;10.55;8.05;;;;;;;13.68;nan;101327.72;5045741;28;20440;-91
2021/10/18 14:00:44;;;;;;;15.18;9.52;;;;;;;13.63;nan;101345.91;5018149;28;20044;-91